Create Custom Reports and Graphics: Custom Report

North/Central Map

Map

15 Minute Data

South County Map

Map

15 Minute Data

Northern Sonoma County Latest

13 Stations

15 Minute Data | America/Los_Angeles
as of 9/29/20 7:39 AM PDT
Station Date Time Temp (°F) RH (%) Dew Pt (°F) Wind Spd (mph) Wind Dir (°) Wind Gust (mph) Latest Rain (In) Daily Rain (In) Daily Min Temp (°F) Daily Max Temp (°F)
Rockpile Upper (Cooley) 9/29/20 0730 75.7   0.7 20   6 31.5   8.0 3.7 ENE | 63 7.0   1.1 0.00 0.00 75.2   0.8 79.7   1.4
Rockpile Lower (Cooley) 9/29/20 0715 76.2   3.2 23   11 35.8   13.1 0.2 NNE | 15 1.5   2.7 0.00 0.00 71.9   7.1 78.1   6.1
Cloverdale-East (Ranch 83) 9/29/20 0730 59.4   17.8 51   32 41.0   10.4 0.8 SE | 124 3.5   11.2 0.00 0.00 50.2   24.6 67.0   23.8
Cloverdale-SE (Ranch 38) 9/29/20 0730 63.7   22.3 40   29 39.2   12.5 0.5 NNW | 332 2.1   16.5 0.00 0.00 61.2   23.0 70.5   18.5
Geyserville-North (Hoffman) 9/29/20 0730 49.4   16.0 80   40 43.6   2.8 0.2 E | 90 1.1   3.5 0.00 0.00 47.6   16.1 54.0   32.6
Geyserville (Ranch 3) 9/29/20 0730 49.8   17.7 89   54 46.8   7.6 0.7 ESE | 122 1.5   2.0 0.00 0.00 49.6   16.7 55.1   33.6
Geyserville-East (Ranch 40) 9/29/20 0730 61.8   18.8 53   36 44.3   13.0 1.9 S | 178 3.5   1.2 0.00 0.00 61.4   18.1 70.2   18.9
Geyserville-South (Nervo Station) 9/29/20 0730 56.5   17.0 68   47 46.2   15.0 0.8 SSW | 192 2.4   4.4 0.00 0.00 55.3   16.8 64.7   22.8
Lytton (River Oaks) 9/29/20 0730 47.6   16.6 91   52 45.1   6.4 0.7 E | 97 1.8   3.0 0.00 0.00 46.1   17.8 52.1   37.9
Jimtown-North (Piccolo-R15) 9/29/20 0730 47.9   18.7 77   46 41.0   6.0 0.6 NNE | 14 1.5   3.3 0.00 0.01 47.5   18.6 54.4   35.3
Jimtown-NE (Red Fan) 9/29/20 0730 50.1   17.2 91   57 47.7   9.2 1.7 NNE | 15 2.7   2.0 0.00 0.00 49.6   17.2 55.2   34.8
HWY 128/Chalk Hill Rd (Landslide) 9/29/20 0730 48.5   37.5 83   72 43.4   19.5 0.0 N | 0 0.0   15.7 0.00 0.00 48.0   35.6 53.1   36.3
Lower Dry Creek Valley 9/29/20 0730 51.3   7.7 84   30 46.6   4.2 2.8 ESE | 115 3.9   2.5 0.00 0.00 49.2   7.6 53.4   10.2
Max     76.2 91 47.7 3.7 - 7.0 0.00 0.01 75.2 79.7
Avg     56.8 65 42.5 1.1 - 2.5 0.00 - - -
Min     47.6 20 31.5 0.0 - 0.0 0.00 0.00 46.1 52.1

Central Sonoma County Latest

26 Stations

15 Minute Data | America/Los_Angeles
as of 9/29/20 7:39 AM PDT
Station Date Time Temp (°F) RH (%) Dew Pt (°F) Wind Spd (mph) Wind Dir (°) Wind Gust (mph) Latest Rain (In) Daily Rain (In) Daily Min Temp (°F) Daily Max Temp (°F)
Healdsburg-South (Sodini) 9/29/20 0730 51.3   15.3 89   54 48.1   10.0 0.0 N | 0 0.0   4.8 0.00 0.00 50.2   14.6 56.3   32.9
Windsor-NW (Ranch 8) 9/29/20 0730 53.0   15.1 86   50 48.9   8.9 1.5 E | 83 3.0   1.8 0.00 0.00 52.8   14.2 60.4   28.9
Windsor-East (Ranch 16) 9/29/20 0730 50.1   19.4 89   63 47.0   13.6 0.0 N | 0 0.0   3.7 0.00 0.00 49.2   13.9 53.4   21.3
Mark West-North (Ranch 14) 9/29/20 0730 52.3   13.8 86   47 48.3   7.8 0.0 N | 350 0.5   2.0 0.00 0.00 49.6   12.3 56.1   13.0
Windsor-SE (Silk Rd) 9/29/20 0730 46.9   12.6 98   37 46.3   0.4 0.0 N | 0 0.0   2.0 0.00 0.00 46.5   10.9 50.1   12.3
Fulton-NW (Ranch 5) 9/29/20 0730 49.3   15.6 91   40 46.7   0.7 0.2 NNE | 22 1.1   2.5 0.00 0.00 48.7   12.7 53.8   13.8
Windsor-South (Laughlin Rd) 9/29/20 0730 51.2   24.0 - - - - - 0.00 0.00 49.2   14.0 55.6   20.0
Fulton-SE (Barnes Rd) 9/29/20 0730 50.6   21.0 90   58 47.7   7.7 0.6 WNW | 285 1.5   2.9 0.00 0.00 49.5   16.3 57.0   26.1
Fulton-SW (Ranch 21) 9/25/20 0015 55.1   3.0 82   8 49.8   5.6 0.5 SE | 140 1.9   0.7 0.00 0.00 52.4   5.5 86.7   0.7
Santa Rosa-NW (Goldfields) 9/29/20 0730 50.3   17.4 92   51 48.1   5.1 0.1 WNW | 295 0.7   1.4 0.00 0.00 50.0   13.9 56.3   17.9
NW Santa Rosa (Piner Road) 9/29/20 0730 47.3   12.8 92   28 45.2   2.9 0.0 N | 0 0.0   2.8 0.00 0.00 46.7   13.0 52.5   15.2
River Rd South (Denner Ranch) 9/29/20 0730 47.9   18.1 96   54 46.8   4.8 1.6 WNW | 299 2.8   0.2 0.00 0.00 47.1   13.7 53.6   16.7
West Santa Rosa (Hawk's Roost) 9/29/20 0730 48.3   13.0 97   37 47.5   0.1 0.2 NE | 40 1.2   0.2 0.00 0.00 48.1   12.9 53.7   13.2
Guerneville Rd West (Balletto) 9/29/20 0730 47.3   10.2 94   19 45.6   3.9 0.3 SSE | 168 1.2   1.4 0.00 0.00 46.0   11.3 49.8   15.3
Guerneville Rd East (Rich Ranch) 9/29/20 0730 49.5   11.2 92   30 47.3   0.4 - - - - - 47.2   13.3 52.0   16.4
Occidental Rd (Sebastopol) 9/29/20 0730 48.9   11.4 100   39 49.0   2.2 0.3 NE | 53 1.3   0.9 0.00 0.00 47.0   12.9 52.5   13.0
Lower Westside Rd (Ranch 12) 9/29/20 0730 48.3   11.6 92   31 46.1   0.3 0.0 N | 0 0.0   0.9 0.00 0.00 47.9   11.0 52.5   17.4
Guerneville (Laughlin Rd) 9/29/20 0730 45.8   5.2 94   14 44.3   0.8 0.0 N | 0 0.0   1.4 0.00 0.00 45.6   5.2 49.8   10.2
Korbel (Winery) 9/29/20 0730 49.4   4.8 97   12 48.6   1.2 0.1 NNW | 331 0.5   0.6 0.00 0.00 49.0   5.0 52.0   11.3
Forestville (Shone Farms) 9/29/20 0730 53.4   25.7 91   76 51.0   22.3 1.0 SW | 220 2.3   3.8 0.00 0.00 50.2   19.1 58.6   29.7
Forestville-NE (Ranch 30) 9/29/20 0730 49.0   11.1 96   35 47.7   1.3 0.0 N | 0 0.0   3.0 0.00 0.00 47.3   11.8 53.3   12.3
Graton-West (Dutton Ranch) 9/29/20 0730 47.5   11.9 100   42 47.5   2.8 0.3 S | 190 1.1   1.2 0.00 0.00 46.5   11.9 51.4   12.9
Graton-South (Mill Station Rd) 9/29/20 0730 47.8   8.1 97   20 47.0   1.9 1.7 NW | 323 3.2   3.2 0.00 0.00 46.7   8.9 57.7   7.1
Sexton Valley (Jacqueline's Blk) 9/29/20 0730 52.1   4.9 97   26 51.1   3.5 1.1 WNW | 283 2.0   0.7 0.00 0.00 48.8   7.7 58.4   5.6
Sebastopol Hills (Burnside Rd) 9/29/20 0730 54.7   24.4 93   77 52.9   22.6 3.3 WSW | 257 5.2   0.6 0.00 0.00 53.8   21.5 58.1   24.0
Seaview/Fort Ross (Hirsch) 9/29/20 0730 76.9   2.7 20   7 32.3   8.4 2.3 SSE | 160 5.2   2.3 0.00 0.00 76.1   2.4 83.8   1.5
Max     76.9 100 52.9 3.3 - 5.2 0.00 0.00 76.1 83.8
Avg     50.8 90 47.1 0.6 - 1.4 0.00 - - -
Min     45.8 20 32.3 0.0 - 0.0 0.00 0.00 45.6 49.8

Southern Sonoma County Latest

14 Stations

15 Minute Data | America/Los_Angeles
as of 9/29/20 7:39 AM PDT
Station Date Time Temp (°F) RH (%) Dew Pt (°F) Wind Spd (mph) Wind Dir (°) Wind Gust (mph) Latest Rain (In) Daily Rain (In) Daily Min Temp (°F) Daily Max Temp (°F)
Lower Bennett Valley 9/29/20 0730 47.9   16.4 89   47 45.0   3.8 0.0 S | 181 0.7   1.5 0.00 0.00 47.3   16.8 51.5   22.4
Kenwood (Kunde) 9/29/20 0730 50.9   35.1 84   73 46.2   21.0 0.0 N | 0 0.0   8.9 0.00 0.00 50.6   32.6 58.6   31.7
Sonoma Valley (Bedrock) 9/29/20 0730 52.5   31.3 74   64 44.5   22.6 0.0 N | 0 0.0   12.5 0.00 0.00 51.9   15.8 58.6   28.8
Sonoma-West (Arnold) 9/29/20 0730 52.3   15.0 66   38 41.1   8.6 0.8 SW | 232 1.6   2.6 0.00 0.00 51.5   9.7 58.5   29.0
Schellville 9/29/20 0730 52.0   19.8 85   52 47.6   6.5 0.0 N | 0 0.0   4.1 0.00 0.00 51.8   7.1 59.5   24.9
Sonoma-SE (Napoli) 9/29/20 0730 52.1   32.7 82   71 46.8   21.6 0.0 N | 0 0.0   14.5 0.00 0.00 51.3   11.4 61.5   26.7
Carneros (Ranch 71) 9/29/20 0730 60.8   24.0 74   63 52.4   29.1 0.7 NW | 307 2.1   12.8 0.00 0.00 58.2   14.0 66.8   20.6
Carneros Upper (Ranch 81) 9/29/20 0730 60.8   23.4 82   73 55.4   34.6 1.3 SW | 225 1.7   18.1 - - 59.2   16.0 63.1   23.2
Carneros Lower (Ranch 81) 9/29/20 0730 52.8   31.2 91   80 50.3   25.7 0.3 N | 8 1.1   14.2 0.00 0.00 52.4   6.7 59.2   25.9
Rohnert Park-West (Stony Point) 9/20/20 1315 88.1   6.1 34   8 55.9   0.2 4.1 W | 275 8.6   3.5 0.00 0.00 45.5   1.9 89.0   5.9
Penngrove (Asellus) 9/29/20 0730 48.5   10.0 91   40 46.0   5.4 0.1 ENE | 67 1.0   0.7 0.00 0.00 48.3   9.1 54.3   21.0
Roger's Creek (Ranch 50) 9/29/20 0730 61.4   12.8 74   48 53.1   15.8 0.6 ENE | 66 2.4   0.1 0.00 0.00 58.6   15.4 64.4   20.3
Petaluma (Ranch 10) 9/29/20 0730 50.7   4.9 90   27 47.8   4.6 0.0 E | 80 0.6   1.2 0.00 0.00 50.4   4.5 60.0   1.1
Lakeville (Ranch 47) 9/29/20 0730 52.2   11.4 91   42 49.6   5.5 2.1 NW | 313 3.7   1.1 0.00 0.00 51.8   6.4 60.5   7.3
Max     61.4 91 55.4 2.1 - 3.7 0.00 0.00 59.2 66.8
Avg     53.4 83 48.1 0.5 - 1.1 0.00 - - -
Min     47.9 66 41.1 0.0 - 0.0 0.00 0.00 47.3 51.5

Air Quality (Current)

Map

15 Minute Data